createdAt,value
2022-11-06T00:00:21.149Z,100454.23
2022-11-06T00:03:03.233Z,100451.57
2022-11-06T00:05:53.263Z,100458.09
2022-11-06T00:08:33.674Z,100454.11
2022-11-06T00:11:12.061Z,100455.80
2022-11-06T00:13:45.459Z,100460.34
2022-11-06T00:16:17.788Z,100463.78
2022-11-06T00:18:50.745Z,100469.11
2022-11-06T00:21:26.622Z,100474.16
2022-11-06T00:24:01.083Z,100475.02
2022-11-06T00:26:34.723Z,100475.73
2022-11-06T00:29:07.801Z,100475.40
2022-11-06T00:31:40.443Z,100481.25
2022-11-06T00:34:13.301Z,100481.45
2022-11-06T00:36:45.520Z,100479.05
2022-11-06T00:39:17.989Z,100483.02
2022-11-06T00:41:50.189Z,100475.79
2022-11-06T00:44:22.974Z,100475.66
2022-11-06T00:46:55.103Z,100476.69
2022-11-06T00:49:28.666Z,100473.39
2022-11-06T00:52:01.327Z,100472.27
2022-11-06T00:54:33.744Z,100470.21
2022-11-06T00:57:07.120Z,100473.57
2022-11-06T00:59:39.285Z,100470.24
2022-11-06T01:02:11.699Z,100472.83
2022-11-06T01:04:44.362Z,100477.55
2022-11-06T01:07:16.633Z,100480.09
2022-11-06T01:09:48.943Z,100483.55
2022-11-06T01:12:21.159Z,100479.38
2022-11-06T01:14:53.503Z,100475.54
2022-11-06T01:17:26.089Z,100478.79
2022-11-06T01:19:58.241Z,100480.34
2022-11-06T01:22:30.436Z,100478.21
2022-11-06T01:25:03.043Z,100478.63
2022-11-06T01:27:35.491Z,100479.13
2022-11-06T01:30:09.896Z,100477.33
2022-11-06T01:32:42.182Z,100477.87
2022-11-06T01:35:14.373Z,100474.35
2022-11-06T01:37:47.002Z,100473.36
2022-11-06T01:40:19.345Z,100473.48
2022-11-06T01:42:51.553Z,100474.64
2022-11-06T01:45:32.687Z,100477.65
2022-11-06T01:48:05.433Z,100478.52
2022-11-06T01:50:38.361Z,100482.69
2022-11-06T01:53:10.915Z,100481.55
2022-11-06T01:55:46.567Z,100478.80
2022-11-06T01:58:21.885Z,100482.47
2022-11-06T02:00:54.184Z,100483.79
2022-11-06T02:03:26.916Z,100481.33
2022-11-06T02:06:00.385Z,100482.27
2022-11-06T02:08:33.168Z,100486.42
2022-11-06T02:11:06.002Z,100481.90
2022-11-06T02:13:44.776Z,100479.56
2022-11-06T02:16:23.164Z,100479.80
2022-11-06T02:19:13.867Z,100476.63
2022-11-06T02:22:12.224Z,100476.64
2022-11-06T02:25:09.890Z,100477.55
2022-11-06T02:27:45.529Z,100477.56
2022-11-06T02:30:19.554Z,100483.28
2022-11-06T02:32:59.220Z,100484.80
2022-11-06T02:35:36.175Z,100490.98
2022-11-06T02:38:12.589Z,100490.73
2022-11-06T02:40:50.496Z,100492.17
2022-11-06T02:43:25.611Z,100495.75
2022-11-06T02:46:03.486Z,100497.02
2022-11-06T02:48:42.514Z,100498.76
2022-11-06T02:51:18.878Z,100495.13
2022-11-06T02:53:51.742Z,100496.09
2022-11-06T02:56:28.521Z,100494.09
2022-11-06T02:59:04.551Z,100495.58
2022-11-06T03:01:40.418Z,100498.61
2022-11-06T03:04:17.798Z,100504.07
2022-11-06T03:06:55.600Z,100502.17
2022-11-06T03:09:33.261Z,100505.73
2022-11-06T03:12:18.032Z,100502.52
2022-11-06T03:14:58.798Z,100503.34
2022-11-06T03:17:44.102Z,100500.02
2022-11-06T03:20:19.320Z,100503.51
2022-11-06T03:22:58.275Z,100503.16
2022-11-06T03:25:35.968Z,100499.11
2022-11-06T03:28:13.459Z,100500.23
2022-11-06T03:30:51.489Z,100501.32
2022-11-06T03:33:31.596Z,100507.30
2022-11-06T03:36:10.151Z,100507.40
2022-11-06T03:38:46.258Z,100510.33
2022-11-06T03:41:23.976Z,100500.62
2022-11-06T03:44:00.802Z,100501.27
2022-11-06T03:46:34.300Z,100514.18
2022-11-06T03:49:10.723Z,100519.13
2022-11-06T03:51:46.520Z,100521.70
2022-11-06T03:54:23.373Z,100524.34
2022-11-06T03:57:01.854Z,100525.13
2022-11-06T03:59:39.338Z,100525.80
2022-11-06T04:02:14.381Z,100522.13
2022-11-06T04:04:52.838Z,100521.36
2022-11-06T04:07:29.508Z,100521.67
2022-11-06T04:10:22.203Z,100515.60
2022-11-06T04:13:14.370Z,100513.38
2022-11-06T04:15:53.251Z,100511.72
2022-11-06T04:18:25.417Z,100505.13
2022-11-06T04:21:23.112Z,100508.51
2022-11-06T04:24:26.941Z,100512.10
2022-11-06T04:27:12.729Z,100513.90
2022-11-06T04:30:00.107Z,100519.80
2022-11-06T04:32:41.877Z,100513.18
2022-11-06T04:35:22.615Z,100513.30
2022-11-06T04:38:02.522Z,100516.05
2022-11-06T04:40:46.541Z,100517.51
2022-11-06T04:43:31.482Z,100516.23
2022-11-06T04:46:07.600Z,100510.99
2022-11-06T04:48:40.993Z,100514.08
2022-11-06T04:51:15.102Z,100513.02
2022-11-06T04:53:50.469Z,100507.50
2022-11-06T04:56:29.419Z,100511.06
2022-11-06T04:59:02.665Z,100509.33
2022-11-06T05:01:35.322Z,100511.83
2022-11-06T05:04:07.973Z,100511.63
2022-11-06T05:06:40.201Z,100512.45
2022-11-06T05:09:12.413Z,100511.55
2022-11-06T05:11:44.556Z,100509.73
2022-11-06T05:14:16.725Z,100507.73
2022-11-06T05:16:48.912Z,100508.48
2022-11-06T05:19:21.065Z,100511.67
2022-11-06T05:22:11.047Z,100512.41
2022-11-06T05:24:43.191Z,100515.98
2022-11-06T05:27:15.448Z,100519.04
2022-11-06T05:29:47.706Z,100522.04
2022-11-06T05:32:19.875Z,100525.73
2022-11-06T05:34:52.048Z,100525.53
2022-11-06T05:37:24.850Z,100525.86
2022-11-06T05:39:57.070Z,100526.95
2022-11-06T05:42:29.365Z,100525.59
2022-11-06T05:45:01.516Z,100526.21
2022-11-06T05:47:34.031Z,100525.42
2022-11-06T05:50:07.022Z,100521.16
2022-11-06T05:52:39.807Z,100525.23
2022-11-06T05:55:15.055Z,100529.59
2022-11-06T05:57:47.572Z,100533.55
2022-11-06T06:00:21.546Z,100541.02
2022-11-06T06:02:53.862Z,100539.88
2022-11-06T06:05:26.028Z,100536.52
2022-11-06T06:07:58.242Z,100534.81
2022-11-06T06:10:30.413Z,100540.59
2022-11-06T06:13:02.700Z,100538.41
2022-11-06T06:15:35.082Z,100542.16
2022-11-06T06:18:08.373Z,100542.68
2022-11-06T06:20:40.951Z,100543.95
2022-11-06T06:23:13.504Z,100550.83
2022-11-06T06:25:45.800Z,100555.53
2022-11-06T06:28:17.974Z,100558.42
2022-11-06T06:30:50.291Z,100554.95
2022-11-06T06:33:22.509Z,100560.01
2022-11-06T06:35:55.142Z,100564.51
2022-11-06T06:38:27.406Z,100564.50
2022-11-06T06:41:03.926Z,100563.31
2022-11-06T06:43:37.103Z,100566.75
2022-11-06T06:46:09.802Z,100558.61
2022-11-06T06:48:41.906Z,100558.85
2022-11-06T06:51:14.071Z,100560.55
2022-11-06T06:53:46.347Z,100562.16
2022-11-06T06:56:18.554Z,100563.13
2022-11-06T06:58:50.926Z,100566.91
2022-11-06T07:01:23.705Z,100566.80
2022-11-06T07:04:01.345Z,100564.08
2022-11-06T07:06:36.107Z,100566.41
2022-11-06T07:09:08.557Z,100562.23
2022-11-06T07:11:40.850Z,100564.83
2022-11-06T07:14:13.507Z,100563.60
2022-11-06T07:16:51.078Z,100559.95
2022-11-06T07:19:25.781Z,100559.64
2022-11-06T07:21:58.098Z,100564.75
2022-11-06T07:24:30.423Z,100567.45
2022-11-06T07:27:02.618Z,100571.17
2022-11-06T07:29:34.914Z,100566.28
2022-11-06T07:32:11.055Z,100562.76
2022-11-06T07:34:43.430Z,100561.91
2022-11-06T07:37:15.590Z,100565.89
2022-11-06T07:39:47.810Z,100569.05
2022-11-06T07:42:19.991Z,100574.67
2022-11-06T07:45:02.365Z,100569.71
2022-11-06T07:47:34.708Z,100574.09
2022-11-06T07:50:08.125Z,100570.48
2022-11-06T07:52:40.273Z,100566.66
2022-11-06T07:55:13.108Z,100571.08
2022-11-06T07:57:45.278Z,100571.59
2022-11-06T08:00:18.371Z,100570.88
2022-11-06T08:02:53.983Z,100574.83
2022-11-06T08:05:26.388Z,100575.99
2022-11-06T08:08:00.477Z,100576.77
2022-11-06T08:10:32.645Z,100577.60
2022-11-06T08:13:04.840Z,100582.01
2022-11-06T08:15:38.239Z,100575.71
2022-11-06T08:18:12.615Z,100581.97
2022-11-06T08:20:45.077Z,100585.24
2022-11-06T08:23:17.302Z,100588.56
2022-11-06T08:25:49.437Z,100588.40
2022-11-06T08:28:21.715Z,100589.98
2022-11-06T08:30:54.384Z,100597.83
2022-11-06T08:33:27.274Z,100595.97
2022-11-06T08:36:01.702Z,100595.31
2022-11-06T08:38:34.042Z,100596.13
2022-11-06T08:41:09.960Z,100597.92
2022-11-06T08:43:42.564Z,100599.77
2022-11-06T08:46:15.449Z,100594.15
2022-11-06T08:48:47.558Z,100599.13
2022-11-06T08:51:20.061Z,100594.65
2022-11-06T08:53:52.409Z,100595.62
2022-11-06T08:56:24.805Z,100594.58
2022-11-06T08:58:57.208Z,100591.25
2022-11-06T09:01:29.580Z,100588.05
2022-11-06T09:04:01.881Z,100585.33
2022-11-06T09:06:34.194Z,100582.40
2022-11-06T09:09:06.672Z,100581.51
2022-11-06T09:11:38.813Z,100587.02
2022-11-06T09:14:11.062Z,100583.40
2022-11-06T09:16:43.314Z,100584.94
2022-11-06T09:19:15.500Z,100588.91
2022-11-06T09:21:53.443Z,100587.63
2022-11-06T09:24:49.744Z,100587.75
2022-11-06T09:27:19.296Z,100581.39
2022-11-06T09:29:51.538Z,100583.52
2022-11-06T09:32:24.195Z,100584.41
2022-11-06T09:34:56.411Z,100583.30
2022-11-06T09:37:28.673Z,100581.71
2022-11-06T09:40:06.095Z,100582.76
2022-11-06T09:42:50.352Z,100581.36
2022-11-06T09:45:24.721Z,100580.98
2022-11-06T09:48:01.997Z,100579.02
2022-11-06T09:50:38.890Z,100573.95
2022-11-06T09:53:18.498Z,100573.29
2022-11-06T09:55:52.397Z,100575.77
2022-11-06T09:58:30.350Z,100579.87
2022-11-06T10:01:08.007Z,100579.36
2022-11-06T10:03:45.192Z,100575.95
2022-11-06T10:06:24.947Z,100579.89
2022-11-06T10:09:01.115Z,100577.39
2022-11-06T10:11:51.662Z,100575.93
2022-11-06T10:14:37.520Z,100575.58
2022-11-06T10:17:18.776Z,100569.39
2022-11-06T10:19:57.396Z,100572.53
2022-11-06T10:22:37.026Z,100564.21
2022-11-06T10:25:22.143Z,100562.35
2022-11-06T10:28:02.434Z,100562.90
2022-11-06T10:30:46.389Z,100561.79
2022-11-06T10:33:35.762Z,100565.21
2022-11-06T10:36:11.075Z,100563.38
2022-11-06T10:38:47.863Z,100567.52
2022-11-06T10:41:23.938Z,100567.84
2022-11-06T10:44:00.617Z,100559.92
2022-11-06T10:46:38.135Z,100565.69
2022-11-06T10:49:21.693Z,100567.72
2022-11-06T10:52:06.277Z,100565.90
2022-11-06T10:54:56.981Z,100562.93
2022-11-06T10:57:38.468Z,100562.91
2022-11-06T11:00:15.762Z,100560.13
2022-11-06T11:02:50.764Z,100558.06
2022-11-06T11:05:22.089Z,100556.61
2022-11-06T11:07:55.407Z,100555.01
2022-11-06T11:10:33.444Z,100552.98
2022-11-06T11:13:08.984Z,100548.19
2022-11-06T11:15:47.787Z,100546.79
2022-11-06T11:18:24.235Z,100540.94
2022-11-06T11:21:09.386Z,100535.77
2022-11-06T11:23:40.264Z,100530.92
2022-11-06T11:26:27.710Z,100527.56
2022-11-06T11:29:02.386Z,100522.95
2022-11-06T11:31:36.384Z,100521.67
2022-11-06T11:34:18.530Z,100517.64
2022-11-06T11:36:58.265Z,100512.25
2022-11-06T11:39:33.978Z,100516.04
2022-11-06T11:42:27.006Z,100517.30
2022-11-06T11:45:21.152Z,100510.15
2022-11-06T11:48:09.977Z,100506.20
2022-11-06T11:50:42.299Z,100502.02
2022-11-06T11:53:20.947Z,100498.52
2022-11-06T11:55:54.418Z,100494.73
2022-11-06T11:58:30.457Z,100492.63
2022-11-06T12:01:07.663Z,100491.09
2022-11-06T12:03:44.928Z,100484.73
2022-11-06T12:06:19.604Z,100482.17
2022-11-06T12:08:55.687Z,100474.36
2022-11-06T12:11:30.905Z,100475.23
2022-11-06T12:14:36.403Z,100472.27
2022-11-06T12:17:23.340Z,100470.73
2022-11-06T12:19:59.332Z,100468.10
2022-11-06T12:22:36.274Z,100462.38
2022-11-06T12:25:16.366Z,100457.29
2022-11-06T12:27:52.544Z,100450.80
2022-11-06T12:30:25.027Z,100451.47
2022-11-06T12:33:05.896Z,100452.19
2022-11-06T12:35:42.617Z,100451.69
2022-11-06T12:38:28.457Z,100451.48
2022-11-06T12:41:06.206Z,100455.04
2022-11-06T12:43:43.906Z,100456.99
2022-11-06T12:46:37.755Z,100455.88
2022-11-06T12:49:42.622Z,100453.92
2022-11-06T12:52:30.146Z,100450.34
2022-11-06T12:55:16.698Z,100447.19
2022-11-06T12:58:05.686Z,100449.39
2022-11-06T13:00:48.230Z,100446.21
2022-11-06T13:03:42.933Z,100444.06
2022-11-06T13:06:20.568Z,100441.35
2022-11-06T13:09:02.078Z,100440.36
2022-11-06T13:11:45.689Z,100436.27
2022-11-06T13:14:27.256Z,100434.98
2022-11-06T13:17:07.384Z,100434.91
2022-11-06T13:19:48.461Z,100436.10
2022-11-06T13:22:30.816Z,100436.10
2022-11-06T13:25:15.324Z,100438.19
2022-11-06T13:27:53.046Z,100436.33
2022-11-06T13:30:26.116Z,100431.54
2022-11-06T13:33:06.372Z,100431.86
2022-11-06T13:35:43.249Z,100434.48
2022-11-06T13:38:19.928Z,100434.34
2022-11-06T13:41:02.183Z,100438.77
2022-11-06T13:43:38.836Z,100434.91
2022-11-06T13:46:22.425Z,100435.02
2022-11-06T13:49:03.542Z,100431.33
2022-11-06T13:51:44.634Z,100430.27
2022-11-06T13:54:25.920Z,100427.80
2022-11-06T13:57:40.947Z,100431.58
2022-11-06T14:00:22.437Z,100432.20
2022-11-06T14:03:28.267Z,100430.41
2022-11-06T14:06:01.645Z,100425.91
2022-11-06T14:08:41.848Z,100425.66
2022-11-06T14:11:17.722Z,100422.64
2022-11-06T14:14:03.000Z,100422.67
2022-11-06T14:16:38.351Z,100422.48
2022-11-06T14:19:15.739Z,100423.23
2022-11-06T14:21:51.282Z,100422.96
2022-11-06T14:24:40.961Z,100423.52
2022-11-06T14:27:56.059Z,100423.50
2022-11-06T14:31:11.108Z,100422.68
2022-11-06T14:34:01.200Z,100425.80
2022-11-06T14:36:36.405Z,100420.03
2022-11-06T14:39:14.574Z,100419.60
2022-11-06T14:42:01.282Z,100419.66
2022-11-06T14:44:50.807Z,100420.19
2022-11-06T14:47:32.265Z,100418.09
2022-11-06T14:50:24.402Z,100420.98
2022-11-06T14:53:01.613Z,100426.42
2022-11-06T14:55:39.695Z,100432.89
2022-11-06T14:58:23.870Z,100433.29
2022-11-06T15:00:58.146Z,100434.17
2022-11-06T15:03:35.787Z,100435.26
2022-11-06T15:06:36.164Z,100435.91
2022-11-06T15:09:12.942Z,100432.91
2022-11-06T15:11:57.534Z,100435.27
2022-11-06T15:15:06.932Z,100433.32
2022-11-06T15:17:41.110Z,100431.87
2022-11-06T15:20:27.100Z,100430.45
2022-11-06T15:23:08.053Z,100428.70
2022-11-06T15:25:47.285Z,100434.09
2022-11-06T15:28:23.295Z,100434.50
2022-11-06T15:31:01.219Z,100432.27
2022-11-06T15:33:38.097Z,100432.94
2022-11-06T15:36:14.797Z,100436.44
2022-11-06T15:38:47.282Z,100431.79
2022-11-06T15:41:23.589Z,100431.98
2022-11-06T15:43:57.804Z,100435.04
2022-11-06T15:46:31.073Z,100434.90
2022-11-06T15:49:19.626Z,100438.18
2022-11-06T15:51:57.507Z,100438.97
2022-11-06T15:54:38.537Z,100438.77
2022-11-06T15:57:18.634Z,100435.87
2022-11-06T15:59:51.163Z,100433.48
2022-11-06T16:02:24.528Z,100431.23
2022-11-06T16:04:56.983Z,100429.73
2022-11-06T16:07:29.541Z,100424.02
2022-11-06T16:10:01.856Z,100425.57
2022-11-06T16:12:34.382Z,100424.77
2022-11-06T16:15:07.563Z,100426.33
2022-11-06T16:17:44.009Z,100427.81
2022-11-06T16:20:18.516Z,100427.23
2022-11-06T16:22:50.709Z,100431.33
2022-11-06T16:25:23.004Z,100435.57
2022-11-06T16:27:55.250Z,100437.36
2022-11-06T16:30:27.752Z,100438.61
2022-11-06T16:33:00.047Z,100441.50
2022-11-06T16:35:37.801Z,100438.10
2022-11-06T16:38:46.640Z,100437.27
2022-11-06T16:41:37.992Z,100439.14
2022-11-06T16:44:45.369Z,100438.90
2022-11-06T16:47:19.316Z,100440.59
2022-11-06T16:49:54.474Z,100435.17
2022-11-06T16:52:30.035Z,100429.79
2022-11-06T16:55:05.644Z,100424.35
2022-11-06T16:57:45.046Z,100419.07
2022-11-06T17:00:27.457Z,100417.88
2022-11-06T17:03:02.391Z,100418.98
2022-11-06T17:05:36.884Z,100415.35
2022-11-06T17:08:22.370Z,100418.35
2022-11-06T17:10:55.452Z,100418.52
2022-11-06T17:13:29.989Z,100415.19
2022-11-06T17:16:03.701Z,100415.69
2022-11-06T17:18:37.771Z,100419.34
2022-11-06T17:21:15.465Z,100417.36
2022-11-06T17:23:48.940Z,100411.25
2022-11-06T17:26:24.128Z,100408.73
2022-11-06T17:28:57.630Z,100407.84
2022-11-06T17:31:30.697Z,100410.59
2022-11-06T17:34:02.811Z,100410.02
2022-11-06T17:36:35.490Z,100412.73
2022-11-06T17:39:08.898Z,100414.31
2022-11-06T17:41:41.467Z,100417.64
2022-11-06T17:44:15.629Z,100413.96
2022-11-06T17:46:48.694Z,100410.75
2022-11-06T17:49:20.913Z,100410.75
2022-11-06T17:52:00.246Z,100407.09
2022-11-06T17:54:37.162Z,100411.80
2022-11-06T17:57:10.420Z,100410.02
2022-11-06T17:59:42.610Z,100411.35
2022-11-06T18:02:29.781Z,100414.52
2022-11-06T18:05:10.169Z,100410.14
2022-11-06T18:07:42.367Z,100407.75
2022-11-06T18:10:14.484Z,100406.35
2022-11-06T18:12:51.340Z,100408.80
2022-11-06T18:15:23.556Z,100406.39
2022-11-06T18:17:55.740Z,100408.96
2022-11-06T18:20:27.918Z,100402.63
2022-11-06T18:23:00.005Z,100402.14
2022-11-06T18:25:32.181Z,100395.02
2022-11-06T18:28:04.449Z,100393.25
2022-11-06T18:30:38.275Z,100391.92
2022-11-06T18:33:10.380Z,100390.12
2022-11-06T18:35:42.618Z,100389.76
2022-11-06T18:38:16.136Z,100383.73
2022-11-06T18:40:51.630Z,100375.73
2022-11-06T18:43:24.872Z,100367.77
2022-11-06T18:45:57.101Z,100363.40
2022-11-06T18:48:29.295Z,100362.48
2022-11-06T18:51:07.909Z,100362.91
2022-11-06T18:53:41.147Z,100361.46
2022-11-06T18:56:14.659Z,100361.87
2022-11-06T18:58:47.209Z,100366.52
2022-11-06T19:01:20.595Z,100367.54
2022-11-06T19:03:53.004Z,100365.92
2022-11-06T19:06:25.307Z,100365.85
2022-11-06T19:08:57.496Z,100363.63
2022-11-06T19:11:29.773Z,100367.09
2022-11-06T19:14:01.972Z,100365.77
2022-11-06T19:16:34.666Z,100369.91
2022-11-06T19:19:08.229Z,100370.42
2022-11-06T19:21:46.125Z,100368.77
2022-11-06T19:24:19.184Z,100365.77
2022-11-06T19:26:51.533Z,100365.59
2022-11-06T19:29:23.980Z,100367.05
2022-11-06T19:32:01.603Z,100361.89
2022-11-06T19:34:38.899Z,100362.36
2022-11-06T19:37:11.522Z,100359.80
2022-11-06T19:39:43.687Z,100358.40
2022-11-06T19:42:15.854Z,100354.73
2022-11-06T19:44:47.998Z,100352.65
2022-11-06T19:47:20.140Z,100346.63
2022-11-06T19:49:52.251Z,100346.11
2022-11-06T19:52:42.261Z,100344.23
2022-11-06T19:55:26.696Z,100343.68
2022-11-06T19:58:01.581Z,100343.45
2022-11-06T20:00:33.738Z,100344.79
2022-11-06T20:03:06.105Z,100345.19
2022-11-06T20:05:39.519Z,100344.73
2022-11-06T20:08:12.151Z,100345.80
2022-11-06T20:10:44.372Z,100345.86
2022-11-06T20:13:16.854Z,100346.10
2022-11-06T20:15:49.447Z,100352.05
2022-11-06T20:18:21.667Z,100355.22
2022-11-06T20:20:53.808Z,100361.77
2022-11-06T20:23:26.041Z,100366.30
2022-11-06T20:25:58.762Z,100367.38
2022-11-06T20:28:31.624Z,100369.59
2022-11-06T20:31:08.506Z,100370.58
2022-11-06T20:33:41.106Z,100371.05
2022-11-06T20:36:15.496Z,100369.81
2022-11-06T20:38:48.132Z,100373.30
2022-11-06T20:41:20.729Z,100370.80
2022-11-06T20:43:54.131Z,100375.13
2022-11-06T20:46:27.342Z,100376.17
2022-11-06T20:48:59.616Z,100374.98
2022-11-06T20:51:42.972Z,100374.84
2022-11-06T20:54:20.821Z,100378.69
2022-11-06T20:56:53.014Z,100379.46
2022-11-06T20:59:25.524Z,100381.83
2022-11-06T21:01:57.857Z,100385.91
2022-11-06T21:04:30.212Z,100388.98
2022-11-06T21:07:02.488Z,100390.39
2022-11-06T21:09:34.621Z,100389.43
2022-11-06T21:12:09.070Z,100390.42
2022-11-06T21:14:41.496Z,100387.33
2022-11-06T21:17:13.713Z,100381.13
2022-11-06T21:19:45.891Z,100378.61
2022-11-06T21:22:18.127Z,100378.77
2022-11-06T21:24:50.450Z,100374.13
2022-11-06T21:27:22.719Z,100374.73
2022-11-06T21:29:56.028Z,100368.14
2022-11-06T21:32:28.362Z,100366.27
2022-11-06T21:35:00.582Z,100363.21
2022-11-06T21:37:34.437Z,100361.94
2022-11-06T21:40:08.293Z,100356.31
2022-11-06T21:42:40.696Z,100353.39
2022-11-06T21:45:14.926Z,100350.06
2022-11-06T21:47:47.771Z,100348.15
2022-11-06T21:50:28.259Z,100347.85
2022-11-06T21:53:19.736Z,100346.05
2022-11-06T21:56:02.023Z,100345.98
2022-11-06T21:58:34.748Z,100346.93
2022-11-06T22:01:08.104Z,100343.50
2022-11-06T22:03:41.441Z,100341.64
2022-11-06T22:06:15.906Z,100338.49
2022-11-06T22:08:49.493Z,100337.60
2022-11-06T22:11:23.749Z,100335.25
2022-11-06T22:13:57.304Z,100336.28
2022-11-06T22:16:31.573Z,100335.27
2022-11-06T22:19:04.679Z,100328.83
2022-11-06T22:21:39.169Z,100326.13
2022-11-06T22:24:14.249Z,100323.73
2022-11-06T22:26:46.460Z,100321.36
2022-11-06T22:29:18.733Z,100317.17
2022-11-06T22:31:52.379Z,100315.61
2022-11-06T22:34:24.616Z,100305.33
2022-11-06T22:36:56.874Z,100297.88
2022-11-06T22:39:29.125Z,100294.55
2022-11-06T22:42:01.446Z,100286.89
2022-11-06T22:44:36.550Z,100282.54
2022-11-06T22:47:09.287Z,100277.94
2022-11-06T22:49:41.453Z,100270.05
2022-11-06T22:52:13.599Z,100263.72
2022-11-06T22:54:45.841Z,100259.04
2022-11-06T22:57:18.096Z,100259.34
2022-11-06T22:59:50.153Z,100254.22
2022-11-06T23:02:22.500Z,100254.95
2022-11-06T23:04:54.821Z,100253.88
2022-11-06T23:07:27.041Z,100256.10
2022-11-06T23:09:59.261Z,100250.61
2022-11-06T23:12:31.478Z,100245.02
2022-11-06T23:15:03.905Z,100240.48
2022-11-06T23:17:38.498Z,100246.32
2022-11-06T23:20:13.026Z,100246.76
2022-11-06T23:22:45.348Z,100242.86
2022-11-06T23:25:20.102Z,100239.61
2022-11-06T23:27:52.372Z,100236.05
2022-11-06T23:30:24.646Z,100230.52
2022-11-06T23:32:57.653Z,100233.88
2022-11-06T23:35:32.676Z,100233.45
2022-11-06T23:38:05.271Z,100230.48
2022-11-06T23:40:37.489Z,100230.45
2022-11-06T23:43:09.719Z,100232.63
2022-11-06T23:45:51.650Z,100237.85
2022-11-06T23:48:24.265Z,100236.92
2022-11-06T23:50:56.582Z,100244.86
2022-11-06T23:53:28.784Z,100249.54
2022-11-06T23:56:05.629Z,100254.76
2022-11-06T23:58:38.876Z,100256.33
